sensor_id;sensor_type;location;lat;lon;timestamp;P1;durP1;ratioP1;P2;durP2;ratioP2
79640;SDS011;69115;49.904;14.390;2024-03-17T00:02:08;9.40;;;4.57;;
79640;SDS011;69115;49.904;14.390;2024-03-17T00:04:33;10.52;;;4.45;;
79640;SDS011;69115;49.904;14.390;2024-03-17T00:06:59;7.10;;;4.43;;
79640;SDS011;69115;49.904;14.390;2024-03-17T00:09:24;7.60;;;4.40;;
79640;SDS011;69115;49.904;14.390;2024-03-17T00:11:50;7.53;;;4.50;;
79640;SDS011;69115;49.904;14.390;2024-03-17T00:14:16;10.63;;;5.07;;
79640;SDS011;69115;49.904;14.390;2024-03-17T00:16:43;7.63;;;4.50;;
79640;SDS011;69115;49.904;14.390;2024-03-17T00:19:09;8.30;;;4.60;;
79640;SDS011;69115;49.904;14.390;2024-03-17T00:21:35;8.55;;;4.30;;
79640;SDS011;69115;49.904;14.390;2024-03-17T00:24:00;7.18;;;4.18;;
79640;SDS011;69115;49.904;14.390;2024-03-17T00:26:27;7.57;;;4.38;;
79640;SDS011;69115;49.904;14.390;2024-03-17T00:28:54;9.00;;;4.28;;
79640;SDS011;69115;49.904;14.390;2024-03-17T00:31:19;9.73;;;4.70;;
79640;SDS011;69115;49.904;14.390;2024-03-17T00:33:44;11.05;;;5.55;;
79640;SDS011;69115;49.904;14.390;2024-03-17T00:36:11;11.40;;;5.65;;
79640;SDS011;69115;49.904;14.390;2024-03-17T00:38:36;10.30;;;6.45;;
79640;SDS011;69115;49.904;14.390;2024-03-17T00:41:02;11.63;;;6.35;;
79640;SDS011;69115;49.904;14.390;2024-03-17T00:43:28;14.60;;;6.53;;
79640;SDS011;69115;49.904;14.390;2024-03-17T00:45:54;13.15;;;6.50;;
79640;SDS011;69115;49.904;14.390;2024-03-17T00:48:19;16.67;;;7.45;;
79640;SDS011;69115;49.904;14.390;2024-03-17T00:50:45;14.15;;;6.70;;
79640;SDS011;69115;49.904;14.390;2024-03-17T00:53:11;14.85;;;6.72;;
79640;SDS011;69115;49.904;14.390;2024-03-17T00:55:36;13.45;;;6.57;;
79640;SDS011;69115;49.904;14.390;2024-03-17T00:58:02;12.70;;;6.43;;
79640;SDS011;69115;49.904;14.390;2024-03-17T01:00:28;13.45;;;6.88;;
79640;SDS011;69115;49.904;14.390;2024-03-17T01:02:53;17.60;;;7.20;;
79640;SDS011;69115;49.904;14.390;2024-03-17T01:05:19;13.73;;;7.10;;
79640;SDS011;69115;49.904;14.390;2024-03-17T01:07:44;11.45;;;7.00;;
79640;SDS011;69115;49.904;14.390;2024-03-17T01:10:12;11.98;;;6.75;;
79640;SDS011;69115;49.904;14.390;2024-03-17T01:12:37;14.10;;;6.82;;
79640;SDS011;69115;49.904;14.390;2024-03-17T01:15:04;11.40;;;6.57;;
79640;SDS011;69115;49.904;14.390;2024-03-17T01:17:30;19.60;;;6.93;;
79640;SDS011;69115;49.904;14.390;2024-03-17T01:19:55;13.98;;;7.97;;
79640;SDS011;69115;49.904;14.390;2024-03-17T01:22:21;15.15;;;7.80;;
79640;SDS011;69115;49.904;14.390;2024-03-17T01:24:47;18.98;;;8.70;;
79640;SDS011;69115;49.904;14.390;2024-03-17T01:27:12;15.32;;;7.70;;
79640;SDS011;69115;49.904;14.390;2024-03-17T01:29:41;17.10;;;7.85;;
79640;SDS011;69115;49.904;14.390;2024-03-17T01:32:06;15.73;;;7.95;;
79640;SDS011;69115;49.904;14.390;2024-03-17T01:34:32;15.07;;;7.93;;
79640;SDS011;69115;49.904;14.390;2024-03-17T01:36:57;15.80;;;7.93;;
79640;SDS011;69115;49.904;14.390;2024-03-17T01:39:23;15.65;;;8.38;;
79640;SDS011;69115;49.904;14.390;2024-03-17T01:41:48;13.50;;;7.32;;
79640;SDS011;69115;49.904;14.390;2024-03-17T01:44:21;13.63;;;7.63;;
79640;SDS011;69115;49.904;14.390;2024-03-17T01:46:48;16.98;;;7.50;;
79640;SDS011;69115;49.904;14.390;2024-03-17T01:49:13;15.07;;;7.63;;
79640;SDS011;69115;49.904;14.390;2024-03-17T01:51:39;18.63;;;7.57;;
79640;SDS011;69115;49.904;14.390;2024-03-17T01:54:05;15.90;;;7.75;;
79640;SDS011;69115;49.904;14.390;2024-03-17T01:56:30;16.08;;;7.32;;
79640;SDS011;69115;49.904;14.390;2024-03-17T01:58:56;15.30;;;7.40;;
79640;SDS011;69115;49.904;14.390;2024-03-17T02:01:22;13.63;;;7.00;;
79640;SDS011;69115;49.904;14.390;2024-03-17T02:03:47;12.00;;;6.65;;
79640;SDS011;69115;49.904;14.390;2024-03-17T02:06:13;10.85;;;6.32;;
79640;SDS011;69115;49.904;14.390;2024-03-17T02:08:49;12.45;;;6.15;;
79640;SDS011;69115;49.904;14.390;2024-03-17T02:11:26;17.52;;;6.95;;
79640;SDS011;69115;49.904;14.390;2024-03-17T02:16:18;10.95;;;5.35;;
79640;SDS011;69115;49.904;14.390;2024-03-17T02:18:44;12.80;;;6.28;;
79640;SDS011;69115;49.904;14.390;2024-03-17T02:21:10;11.27;;;5.70;;
79640;SDS011;69115;49.904;14.390;2024-03-17T02:23:36;12.27;;;5.97;;
79640;SDS011;69115;49.904;14.390;2024-03-17T02:26:01;12.77;;;5.47;;
79640;SDS011;69115;49.904;14.390;2024-03-17T02:28:26;11.23;;;5.18;;
79640;SDS011;69115;49.904;14.390;2024-03-17T02:30:52;11.00;;;5.32;;
79640;SDS011;69115;49.904;14.390;2024-03-17T02:33:17;9.35;;;5.28;;
79640;SDS011;69115;49.904;14.390;2024-03-17T02:35:44;9.77;;;5.22;;
79640;SDS011;69115;49.904;14.390;2024-03-17T02:38:09;11.48;;;5.22;;
79640;SDS011;69115;49.904;14.390;2024-03-17T02:40:40;10.05;;;5.78;;
79640;SDS011;69115;49.904;14.390;2024-03-17T02:43:05;14.05;;;6.53;;
79640;SDS011;69115;49.904;14.390;2024-03-17T02:45:31;13.32;;;6.75;;
79640;SDS011;69115;49.904;14.390;2024-03-17T02:47:57;13.68;;;6.90;;
79640;SDS011;69115;49.904;14.390;2024-03-17T02:50:22;15.50;;;6.72;;
79640;SDS011;69115;49.904;14.390;2024-03-17T02:52:48;12.77;;;7.22;;
79640;SDS011;69115;49.904;14.390;2024-03-17T02:55:14;12.65;;;6.88;;
79640;SDS011;69115;49.904;14.390;2024-03-17T02:57:39;13.05;;;6.72;;
79640;SDS011;69115;49.904;14.390;2024-03-17T03:00:05;11.02;;;6.30;;
79640;SDS011;69115;49.904;14.390;2024-03-17T03:02:34;10.80;;;6.07;;
79640;SDS011;69115;49.904;14.390;2024-03-17T03:04:59;11.48;;;5.57;;
79640;SDS011;69115;49.904;14.390;2024-03-17T03:07:24;14.60;;;5.97;;
79640;SDS011;69115;49.904;14.390;2024-03-17T03:09:50;10.13;;;5.60;;
79640;SDS011;69115;49.904;14.390;2024-03-17T03:12:16;10.93;;;5.40;;
79640;SDS011;69115;49.904;14.390;2024-03-17T03:14:41;10.82;;;4.93;;
79640;SDS011;69115;49.904;14.390;2024-03-17T03:17:07;11.98;;;5.53;;
79640;SDS011;69115;49.904;14.390;2024-03-17T03:19:33;11.32;;;5.03;;
79640;SDS011;69115;49.904;14.390;2024-03-17T03:21:59;10.05;;;4.93;;
79640;SDS011;69115;49.904;14.390;2024-03-17T03:24:24;12.73;;;5.60;;
79640;SDS011;69115;49.904;14.390;2024-03-17T03:26:50;10.85;;;5.05;;
79640;SDS011;69115;49.904;14.390;2024-03-17T03:29:18;9.10;;;5.20;;
79640;SDS011;69115;49.904;14.390;2024-03-17T03:31:44;11.82;;;5.50;;
79640;SDS011;69115;49.904;14.390;2024-03-17T03:34:09;12.07;;;6.32;;
79640;SDS011;69115;49.904;14.390;2024-03-17T03:36:37;12.75;;;6.00;;
79640;SDS011;69115;49.904;14.390;2024-03-17T03:39:03;11.48;;;5.78;;
79640;SDS011;69115;49.904;14.390;2024-03-17T03:41:36;16.25;;;6.70;;
79640;SDS011;69115;49.904;14.390;2024-03-17T03:44:01;14.13;;;7.05;;
79640;SDS011;69115;49.904;14.390;2024-03-17T03:46:27;13.35;;;6.60;;
79640;SDS011;69115;49.904;14.390;2024-03-17T03:48:52;12.65;;;6.95;;
79640;SDS011;69115;49.904;14.390;2024-03-17T03:51:18;13.88;;;6.60;;
79640;SDS011;69115;49.904;14.390;2024-03-17T03:53:43;13.85;;;7.13;;
79640;SDS011;69115;49.904;14.390;2024-03-17T03:56:09;12.45;;;6.82;;
79640;SDS011;69115;49.904;14.390;2024-03-17T03:58:35;15.68;;;7.90;;
79640;SDS011;69115;49.904;14.390;2024-03-17T04:01:05;14.00;;;7.05;;
79640;SDS011;69115;49.904;14.390;2024-03-17T04:03:31;13.77;;;7.05;;
79640;SDS011;69115;49.904;14.390;2024-03-17T04:06:04;17.10;;;7.35;;
79640;SDS011;69115;49.904;14.390;2024-03-17T04:08:34;13.18;;;7.05;;
79640;SDS011;69115;49.904;14.390;2024-03-17T04:11:01;15.13;;;7.40;;
79640;SDS011;69115;49.904;14.390;2024-03-17T04:13:27;18.60;;;7.75;;
79640;SDS011;69115;49.904;14.390;2024-03-17T04:15:54;18.35;;;7.90;;
79640;SDS011;69115;49.904;14.390;2024-03-17T04:18:22;17.30;;;7.78;;
79640;SDS011;69115;49.904;14.390;2024-03-17T04:20:49;17.27;;;9.10;;
79640;SDS011;69115;49.904;14.390;2024-03-17T04:23:16;16.50;;;8.13;;
79640;SDS011;69115;49.904;14.390;2024-03-17T04:25:41;19.00;;;8.65;;
79640;SDS011;69115;49.904;14.390;2024-03-17T04:28:08;14.15;;;7.55;;
79640;SDS011;69115;49.904;14.390;2024-03-17T04:30:34;15.35;;;8.18;;
79640;SDS011;69115;49.904;14.390;2024-03-17T04:32:59;18.98;;;8.50;;
79640;SDS011;69115;49.904;14.390;2024-03-17T04:35:25;18.38;;;8.20;;
79640;SDS011;69115;49.904;14.390;2024-03-17T04:37:50;16.50;;;8.20;;
79640;SDS011;69115;49.904;14.390;2024-03-17T04:40:16;17.98;;;8.80;;
79640;SDS011;69115;49.904;14.390;2024-03-17T04:42:41;16.33;;;7.57;;
79640;SDS011;69115;49.904;14.390;2024-03-17T04:45:07;16.50;;;7.97;;
79640;SDS011;69115;49.904;14.390;2024-03-17T04:47:34;17.98;;;8.25;;
79640;SDS011;69115;49.904;14.390;2024-03-17T04:50:00;17.33;;;8.07;;
79640;SDS011;69115;49.904;14.390;2024-03-17T04:52:25;16.13;;;7.80;;
79640;SDS011;69115;49.904;14.390;2024-03-17T04:54:51;15.18;;;7.03;;
79640;SDS011;69115;49.904;14.390;2024-03-17T04:57:16;14.57;;;6.93;;
79640;SDS011;69115;49.904;14.390;2024-03-17T04:59:42;15.85;;;7.47;;
79640;SDS011;69115;49.904;14.390;2024-03-17T05:02:07;18.85;;;7.68;;
79640;SDS011;69115;49.904;14.390;2024-03-17T05:04:32;17.48;;;7.75;;
79640;SDS011;69115;49.904;14.390;2024-03-17T05:06:58;14.30;;;6.47;;
79640;SDS011;69115;49.904;14.390;2024-03-17T05:09:23;16.75;;;7.72;;
79640;SDS011;69115;49.904;14.390;2024-03-17T05:11:52;12.32;;;6.80;;
79640;SDS011;69115;49.904;14.390;2024-03-17T05:14:17;13.90;;;6.47;;
79640;SDS011;69115;49.904;14.390;2024-03-17T05:16:44;15.18;;;7.45;;
79640;SDS011;69115;49.904;14.390;2024-03-17T05:19:10;14.48;;;7.30;;
79640;SDS011;69115;49.904;14.390;2024-03-17T05:21:36;13.10;;;6.75;;
79640;SDS011;69115;49.904;14.390;2024-03-17T05:24:01;13.20;;;6.95;;
79640;SDS011;69115;49.904;14.390;2024-03-17T05:26:27;17.60;;;7.30;;
79640;SDS011;69115;49.904;14.390;2024-03-17T05:28:53;14.52;;;7.55;;
79640;SDS011;69115;49.904;14.390;2024-03-17T05:31:18;12.57;;;7.32;;
79640;SDS011;69115;49.904;14.390;2024-03-17T05:33:46;18.08;;;7.72;;
79640;SDS011;69115;49.904;14.390;2024-03-17T05:36:12;14.05;;;7.47;;
79640;SDS011;69115;49.904;14.390;2024-03-17T05:38:37;17.92;;;7.70;;
79640;SDS011;69115;49.904;14.390;2024-03-17T05:41:04;18.65;;;8.32;;
79640;SDS011;69115;49.904;14.390;2024-03-17T05:43:34;18.40;;;8.10;;
79640;SDS011;69115;49.904;14.390;2024-03-17T05:46:07;19.52;;;8.43;;
79640;SDS011;69115;49.904;14.390;2024-03-17T05:48:40;21.27;;;8.50;;
79640;SDS011;69115;49.904;14.390;2024-03-17T05:51:06;18.05;;;8.48;;
79640;SDS011;69115;49.904;14.390;2024-03-17T05:53:32;16.75;;;8.07;;
79640;SDS011;69115;49.904;14.390;2024-03-17T05:55:59;19.40;;;8.23;;
79640;SDS011;69115;49.904;14.390;2024-03-17T05:58:25;16.50;;;8.30;;
79640;SDS011;69115;49.904;14.390;2024-03-17T06:00:50;21.35;;;8.88;;
79640;SDS011;69115;49.904;14.390;2024-03-17T06:03:16;15.60;;;8.05;;
79640;SDS011;69115;49.904;14.390;2024-03-17T06:05:42;16.40;;;8.50;;
79640;SDS011;69115;49.904;14.390;2024-03-17T06:10:43;21.80;;;8.80;;
79640;SDS011;69115;49.904;14.390;2024-03-17T06:13:09;17.90;;;8.90;;
79640;SDS011;69115;49.904;14.390;2024-03-17T06:15:41;18.48;;;8.73;;
79640;SDS011;69115;49.904;14.390;2024-03-17T06:18:07;19.15;;;9.10;;
79640;SDS011;69115;49.904;14.390;2024-03-17T06:20:39;21.52;;;9.38;;
79640;SDS011;69115;49.904;14.390;2024-03-17T06:23:07;19.92;;;10.52;;
79640;SDS011;69115;49.904;14.390;2024-03-17T06:25:37;34.58;;;18.05;;
79640;SDS011;69115;49.904;14.390;2024-03-17T06:28:07;27.30;;;12.60;;
79640;SDS011;69115;49.904;14.390;2024-03-17T06:30:33;23.17;;;10.20;;
79640;SDS011;69115;49.904;14.390;2024-03-17T06:33:01;39.97;;;16.40;;
79640;SDS011;69115;49.904;14.390;2024-03-17T06:35:26;34.80;;;15.88;;
79640;SDS011;69115;49.904;14.390;2024-03-17T06:37:52;35.97;;;15.75;;
79640;SDS011;69115;49.904;14.390;2024-03-17T06:40:17;28.33;;;14.02;;
79640;SDS011;69115;49.904;14.390;2024-03-17T06:42:43;21.80;;;10.85;;
79640;SDS011;69115;49.904;14.390;2024-03-17T06:45:09;28.00;;;13.02;;
79640;SDS011;69115;49.904;14.390;2024-03-17T06:47:37;28.02;;;11.90;;
79640;SDS011;69115;49.904;14.390;2024-03-17T06:50:04;19.45;;;10.40;;
79640;SDS011;69115;49.904;14.390;2024-03-17T06:52:29;18.25;;;9.65;;
79640;SDS011;69115;49.904;14.390;2024-03-17T06:54:56;17.48;;;9.23;;
79640;SDS011;69115;49.904;14.390;2024-03-17T06:57:23;22.48;;;10.38;;
79640;SDS011;69115;49.904;14.390;2024-03-17T06:59:49;20.10;;;9.48;;
79640;SDS011;69115;49.904;14.390;2024-03-17T07:02:15;18.05;;;9.57;;
79640;SDS011;69115;49.904;14.390;2024-03-17T07:04:43;21.58;;;11.48;;
79640;SDS011;69115;49.904;14.390;2024-03-17T07:07:09;19.42;;;10.65;;
79640;SDS011;69115;49.904;14.390;2024-03-17T07:09:34;19.73;;;9.00;;
79640;SDS011;69115;49.904;14.390;2024-03-17T07:12:00;17.13;;;8.95;;
79640;SDS011;69115;49.904;14.390;2024-03-17T07:14:25;14.45;;;8.07;;
79640;SDS011;69115;49.904;14.390;2024-03-17T07:16:51;17.23;;;7.90;;
79640;SDS011;69115;49.904;14.390;2024-03-17T07:19:17;15.10;;;7.68;;
79640;SDS011;69115;49.904;14.390;2024-03-17T07:21:42;14.48;;;7.00;;
79640;SDS011;69115;49.904;14.390;2024-03-17T07:24:08;14.85;;;7.72;;
79640;SDS011;69115;49.904;14.390;2024-03-17T07:26:33;14.25;;;7.50;;
79640;SDS011;69115;49.904;14.390;2024-03-17T07:28:59;14.57;;;7.68;;
79640;SDS011;69115;49.904;14.390;2024-03-17T07:31:25;17.13;;;7.63;;
79640;SDS011;69115;49.904;14.390;2024-03-17T07:33:50;12.48;;;7.07;;
79640;SDS011;69115;49.904;14.390;2024-03-17T07:36:16;13.27;;;7.32;;
79640;SDS011;69115;49.904;14.390;2024-03-17T07:38:41;14.13;;;6.28;;
79640;SDS011;69115;49.904;14.390;2024-03-17T07:41:07;13.10;;;7.10;;
79640;SDS011;69115;49.904;14.390;2024-03-17T07:43:34;14.25;;;7.05;;
79640;SDS011;69115;49.904;14.390;2024-03-17T07:46:01;17.25;;;7.13;;
79640;SDS011;69115;49.904;14.390;2024-03-17T07:48:29;11.55;;;6.47;;
79640;SDS011;69115;49.904;14.390;2024-03-17T07:51:04;13.55;;;6.60;;
79640;SDS011;69115;49.904;14.390;2024-03-17T07:53:34;11.73;;;6.22;;
79640;SDS011;69115;49.904;14.390;2024-03-17T07:56:02;10.88;;;5.38;;
79640;SDS011;69115;49.904;14.390;2024-03-17T07:58:29;10.30;;;6.32;;
79640;SDS011;69115;49.904;14.390;2024-03-17T08:00:59;11.07;;;5.72;;
79640;SDS011;69115;49.904;14.390;2024-03-17T08:03:25;11.40;;;5.65;;
79640;SDS011;69115;49.904;14.390;2024-03-17T08:05:53;11.88;;;5.45;;
79640;SDS011;69115;49.904;14.390;2024-03-17T08:08:19;8.75;;;4.75;;
79640;SDS011;69115;49.904;14.390;2024-03-17T08:10:44;8.55;;;4.80;;
79640;SDS011;69115;49.904;14.390;2024-03-17T08:13:10;11.38;;;5.50;;
79640;SDS011;69115;49.904;14.390;2024-03-17T08:15:35;10.85;;;6.05;;
79640;SDS011;69115;49.904;14.390;2024-03-17T08:18:01;13.18;;;6.30;;
79640;SDS011;69115;49.904;14.390;2024-03-17T08:20:29;9.98;;;4.82;;
79640;SDS011;69115;49.904;14.390;2024-03-17T08:22:54;9.65;;;4.55;;
79640;SDS011;69115;49.904;14.390;2024-03-17T08:25:20;18.55;;;5.43;;
79640;SDS011;69115;49.904;14.390;2024-03-17T08:27:45;8.38;;;4.20;;
79640;SDS011;69115;49.904;14.390;2024-03-17T08:30:11;9.50;;;4.50;;
79640;SDS011;69115;49.904;14.390;2024-03-17T08:32:38;9.48;;;4.40;;
79640;SDS011;69115;49.904;14.390;2024-03-17T08:35:04;9.18;;;4.97;;
79640;SDS011;69115;49.904;14.390;2024-03-17T08:37:31;8.60;;;4.80;;
79640;SDS011;69115;49.904;14.390;2024-03-17T08:39:56;10.50;;;5.95;;
79640;SDS011;69115;49.904;14.390;2024-03-17T08:42:22;11.27;;;5.70;;
79640;SDS011;69115;49.904;14.390;2024-03-17T08:44:47;9.35;;;5.82;;
79640;SDS011;69115;49.904;14.390;2024-03-17T08:47:13;10.25;;;5.75;;
79640;SDS011;69115;49.904;14.390;2024-03-17T08:49:38;11.30;;;5.53;;
79640;SDS011;69115;49.904;14.390;2024-03-17T08:52:04;9.85;;;5.38;;
79640;SDS011;69115;49.904;14.390;2024-03-17T08:54:29;14.90;;;6.20;;
79640;SDS011;69115;49.904;14.390;2024-03-17T08:56:55;9.95;;;5.35;;
79640;SDS011;69115;49.904;14.390;2024-03-17T08:59:20;11.82;;;5.45;;
79640;SDS011;69115;49.904;14.390;2024-03-17T09:01:46;10.50;;;5.50;;
79640;SDS011;69115;49.904;14.390;2024-03-17T09:04:11;9.88;;;5.15;;
79640;SDS011;69115;49.904;14.390;2024-03-17T09:06:37;16.10;;;5.95;;
79640;SDS011;69115;49.904;14.390;2024-03-17T09:09:03;8.73;;;5.72;;
79640;SDS011;69115;49.904;14.390;2024-03-17T09:11:28;17.13;;;6.10;;
79640;SDS011;69115;49.904;14.390;2024-03-17T09:13:54;13.18;;;6.05;;
79640;SDS011;69115;49.904;14.390;2024-03-17T09:16:20;14.48;;;6.45;;
79640;SDS011;69115;49.904;14.390;2024-03-17T09:18:48;10.65;;;5.25;;
79640;SDS011;69115;49.904;14.390;2024-03-17T09:21:17;12.18;;;5.97;;
79640;SDS011;69115;49.904;14.390;2024-03-17T09:23:42;12.50;;;5.57;;
79640;SDS011;69115;49.904;14.390;2024-03-17T09:26:08;12.35;;;6.15;;
79640;SDS011;69115;49.904;14.390;2024-03-17T09:28:35;10.30;;;6.25;;
79640;SDS011;69115;49.904;14.390;2024-03-17T09:31:01;14.82;;;6.05;;
79640;SDS011;69115;49.904;14.390;2024-03-17T09:33:28;9.30;;;5.85;;
79640;SDS011;69115;49.904;14.390;2024-03-17T09:36:01;10.73;;;5.95;;
79640;SDS011;69115;49.904;14.390;2024-03-17T09:38:28;10.60;;;5.93;;
79640;SDS011;69115;49.904;14.390;2024-03-17T09:40:54;11.85;;;5.65;;
79640;SDS011;69115;49.904;14.390;2024-03-17T09:43:23;9.75;;;5.68;;
79640;SDS011;69115;49.904;14.390;2024-03-17T09:45:49;9.23;;;5.43;;
79640;SDS011;69115;49.904;14.390;2024-03-17T09:48:19;9.07;;;4.78;;
79640;SDS011;69115;49.904;14.390;2024-03-17T09:50:51;9.02;;;4.88;;
79640;SDS011;69115;49.904;14.390;2024-03-17T09:53:19;8.95;;;4.30;;
79640;SDS011;69115;49.904;14.390;2024-03-17T09:55:48;6.45;;;4.13;;
79640;SDS011;69115;49.904;14.390;2024-03-17T09:58:15;9.13;;;4.38;;
79640;SDS011;69115;49.904;14.390;2024-03-17T10:00:44;7.38;;;4.25;;
79640;SDS011;69115;49.904;14.390;2024-03-17T10:03:11;6.70;;;3.63;;
79640;SDS011;69115;49.904;14.390;2024-03-17T10:05:37;9.30;;;3.30;;
79640;SDS011;69115;49.904;14.390;2024-03-17T10:08:03;7.43;;;3.53;;
79640;SDS011;69115;49.904;14.390;2024-03-17T10:10:29;5.20;;;3.28;;
79640;SDS011;69115;49.904;14.390;2024-03-17T10:12:55;8.15;;;3.90;;
79640;SDS011;69115;49.904;14.390;2024-03-17T10:15:20;6.50;;;4.03;;
79640;SDS011;69115;49.904;14.390;2024-03-17T10:17:46;6.68;;;3.67;;
79640;SDS011;69115;49.904;14.390;2024-03-17T10:20:12;6.55;;;3.92;;
79640;SDS011;69115;49.904;14.390;2024-03-17T10:23:01;9.90;;;3.50;;
79640;SDS011;69115;49.904;14.390;2024-03-17T10:25:32;9.90;;;3.38;;
79640;SDS011;69115;49.904;14.390;2024-03-17T10:28:04;7.47;;;3.20;;
79640;SDS011;69115;49.904;14.390;2024-03-17T10:30:36;5.90;;;3.10;;
79640;SDS011;69115;49.904;14.390;2024-03-17T10:33:02;6.10;;;2.83;;
79640;SDS011;69115;49.904;14.390;2024-03-17T10:35:36;5.13;;;2.95;;
79640;SDS011;69115;49.904;14.390;2024-03-17T10:40:35;7.30;;;2.78;;
79640;SDS011;69115;49.904;14.390;2024-03-17T10:43:04;5.75;;;2.92;;
79640;SDS011;69115;49.904;14.390;2024-03-17T10:45:30;5.53;;;2.85;;
79640;SDS011;69115;49.904;14.390;2024-03-17T10:48:01;6.35;;;2.70;;
79640;SDS011;69115;49.904;14.390;2024-03-17T10:50:29;6.30;;;2.97;;
79640;SDS011;69115;49.904;14.390;2024-03-17T10:52:55;5.53;;;3.05;;
79640;SDS011;69115;49.904;14.390;2024-03-17T10:55:41;6.70;;;2.80;;
79640;SDS011;69115;49.904;14.390;2024-03-17T10:58:12;6.18;;;2.92;;
79640;SDS011;69115;49.904;14.390;2024-03-17T11:00:49;6.03;;;2.90;;
79640;SDS011;69115;49.904;14.390;2024-03-17T11:03:15;5.13;;;2.97;;
79640;SDS011;69115;49.904;14.390;2024-03-17T11:05:43;7.97;;;3.50;;
79640;SDS011;69115;49.904;14.390;2024-03-17T11:08:14;5.55;;;3.05;;
79640;SDS011;69115;49.904;14.390;2024-03-17T11:10:41;8.40;;;3.38;;
79640;SDS011;69115;49.904;14.390;2024-03-17T11:13:27;6.57;;;3.25;;
79640;SDS011;69115;49.904;14.390;2024-03-17T11:15:54;6.15;;;3.03;;
79640;SDS011;69115;49.904;14.390;2024-03-17T11:18:33;7.45;;;3.20;;
79640;SDS011;69115;49.904;14.390;2024-03-17T11:21:03;6.38;;;2.67;;
79640;SDS011;69115;49.904;14.390;2024-03-17T11:23:37;6.47;;;2.80;;
79640;SDS011;69115;49.904;14.390;2024-03-17T11:26:03;5.40;;;2.85;;
79640;SDS011;69115;49.904;14.390;2024-03-17T11:34:00;9.70;;;4.00;;
79640;SDS011;69115;49.904;14.390;2024-03-17T11:38:57;4.53;;;2.72;;
79640;SDS011;69115;49.904;14.390;2024-03-17T11:41:48;4.18;;;2.30;;
79640;SDS011;69115;49.904;14.390;2024-03-17T11:46:58;8.02;;;3.42;;
79640;SDS011;69115;49.904;14.390;2024-03-17T11:51:53;5.43;;;2.33;;
79640;SDS011;69115;49.904;14.390;2024-03-17T11:54:20;6.90;;;2.47;;
79640;SDS011;69115;49.904;14.390;2024-03-17T11:56:49;6.82;;;2.70;;
79640;SDS011;69115;49.904;14.390;2024-03-17T11:59:15;3.90;;;2.55;;
79640;SDS011;69115;49.904;14.390;2024-03-17T12:01:47;6.05;;;2.78;;
79640;SDS011;69115;49.904;14.390;2024-03-17T12:04:14;3.70;;;2.47;;
79640;SDS011;69115;49.904;14.390;2024-03-17T12:06:44;6.32;;;3.08;;
79640;SDS011;69115;49.904;14.390;2024-03-17T12:09:10;4.55;;;2.15;;
79640;SDS011;69115;49.904;14.390;2024-03-17T12:11:45;5.85;;;2.60;;
79640;SDS011;69115;49.904;14.390;2024-03-17T12:14:20;6.13;;;3.22;;
79640;SDS011;69115;49.904;14.390;2024-03-17T12:16:50;6.47;;;2.78;;
79640;SDS011;69115;49.904;14.390;2024-03-17T12:19:19;6.93;;;2.90;;
79640;SDS011;69115;49.904;14.390;2024-03-17T12:21:45;8.10;;;3.13;;
79640;SDS011;69115;49.904;14.390;2024-03-17T12:24:14;7.50;;;3.00;;
79640;SDS011;69115;49.904;14.390;2024-03-17T12:26:44;6.78;;;2.75;;
79640;SDS011;69115;49.904;14.390;2024-03-17T12:29:26;7.07;;;3.03;;
79640;SDS011;69115;49.904;14.390;2024-03-17T12:32:01;5.80;;;3.00;;
79640;SDS011;69115;49.904;14.390;2024-03-17T12:34:29;5.20;;;2.80;;
79640;SDS011;69115;49.904;14.390;2024-03-17T12:36:55;4.30;;;2.92;;
79640;SDS011;69115;49.904;14.390;2024-03-17T12:39:25;5.93;;;3.40;;
79640;SDS011;69115;49.904;14.390;2024-03-17T12:44:27;8.93;;;3.92;;
79640;SDS011;69115;49.904;14.390;2024-03-17T12:46:59;5.20;;;3.05;;
79640;SDS011;69115;49.904;14.390;2024-03-17T12:49:26;6.63;;;3.50;;
79640;SDS011;69115;49.904;14.390;2024-03-17T12:51:53;7.20;;;3.72;;
79640;SDS011;69115;49.904;14.390;2024-03-17T12:54:20;5.57;;;3.40;;
79640;SDS011;69115;49.904;14.390;2024-03-17T12:56:48;4.40;;;2.80;;
79640;SDS011;69115;49.904;14.390;2024-03-17T13:02:25;5.07;;;3.10;;
79640;SDS011;69115;49.904;14.390;2024-03-17T13:07:45;4.93;;;2.70;;
79640;SDS011;69115;49.904;14.390;2024-03-17T13:10:14;3.95;;;2.92;;
79640;SDS011;69115;49.904;14.390;2024-03-17T13:12:41;5.15;;;2.90;;
79640;SDS011;69115;49.904;14.390;2024-03-17T13:15:08;6.55;;;3.10;;
79640;SDS011;69115;49.904;14.390;2024-03-17T13:17:35;6.93;;;2.97;;
79640;SDS011;69115;49.904;14.390;2024-03-17T13:20:00;7.75;;;3.53;;
79640;SDS011;69115;49.904;14.390;2024-03-17T13:22:27;6.82;;;3.17;;
79640;SDS011;69115;49.904;14.390;2024-03-17T13:24:52;3.83;;;2.55;;
79640;SDS011;69115;49.904;14.390;2024-03-17T13:27:18;4.75;;;2.95;;
79640;SDS011;69115;49.904;14.390;2024-03-17T13:29:47;4.72;;;2.53;;
79640;SDS011;69115;49.904;14.390;2024-03-17T13:32:13;5.53;;;2.67;;
79640;SDS011;69115;49.904;14.390;2024-03-17T13:34:38;5.03;;;2.80;;
79640;SDS011;69115;49.904;14.390;2024-03-17T13:37:03;7.45;;;2.83;;
79640;SDS011;69115;49.904;14.390;2024-03-17T13:39:32;5.47;;;2.90;;
79640;SDS011;69115;49.904;14.390;2024-03-17T13:41:59;6.00;;;2.90;;
79640;SDS011;69115;49.904;14.390;2024-03-17T13:44:27;6.20;;;2.90;;
79640;SDS011;69115;49.904;14.390;2024-03-17T13:46:53;7.30;;;3.08;;
79640;SDS011;69115;49.904;14.390;2024-03-17T13:49:18;5.72;;;3.30;;
79640;SDS011;69115;49.904;14.390;2024-03-17T13:51:44;7.95;;;3.20;;
79640;SDS011;69115;49.904;14.390;2024-03-17T13:54:09;4.53;;;2.80;;
79640;SDS011;69115;49.904;14.390;2024-03-17T13:56:35;5.40;;;3.05;;
79640;SDS011;69115;49.904;14.390;2024-03-17T13:59:00;5.72;;;2.50;;
79640;SDS011;69115;49.904;14.390;2024-03-17T14:01:26;5.65;;;2.92;;
79640;SDS011;69115;49.904;14.390;2024-03-17T14:03:51;5.18;;;3.00;;
79640;SDS011;69115;49.904;14.390;2024-03-17T14:06:17;6.15;;;2.70;;
79640;SDS011;69115;49.904;14.390;2024-03-17T14:08:43;6.03;;;2.80;;
79640;SDS011;69115;49.904;14.390;2024-03-17T14:11:08;6.70;;;2.70;;
79640;SDS011;69115;49.904;14.390;2024-03-17T14:13:34;5.80;;;3.15;;
79640;SDS011;69115;49.904;14.390;2024-03-17T14:15:59;6.65;;;3.33;;
79640;SDS011;69115;49.904;14.390;2024-03-17T14:18:25;6.82;;;2.88;;
79640;SDS011;69115;49.904;14.390;2024-03-17T14:20:50;3.97;;;2.78;;
79640;SDS011;69115;49.904;14.390;2024-03-17T14:23:16;4.55;;;2.90;;
79640;SDS011;69115;49.904;14.390;2024-03-17T14:25:42;6.75;;;2.90;;
79640;SDS011;69115;49.904;14.390;2024-03-17T14:28:07;7.45;;;3.78;;
79640;SDS011;69115;49.904;14.390;2024-03-17T14:30:33;7.65;;;3.20;;
79640;SDS011;69115;49.904;14.390;2024-03-17T14:32:59;5.75;;;2.90;;
79640;SDS011;69115;49.904;14.390;2024-03-17T14:35:24;6.75;;;3.70;;
79640;SDS011;69115;49.904;14.390;2024-03-17T14:37:51;9.45;;;4.90;;
79640;SDS011;69115;49.904;14.390;2024-03-17T14:40:17;7.22;;;4.32;;
79640;SDS011;69115;49.904;14.390;2024-03-17T14:42:48;8.10;;;4.25;;
79640;SDS011;69115;49.904;14.390;2024-03-17T14:45:15;7.78;;;3.95;;
79640;SDS011;69115;49.904;14.390;2024-03-17T14:47:40;5.68;;;3.30;;
79640;SDS011;69115;49.904;14.390;2024-03-17T14:50:06;6.70;;;3.28;;
79640;SDS011;69115;49.904;14.390;2024-03-17T14:52:31;6.60;;;3.00;;
79640;SDS011;69115;49.904;14.390;2024-03-17T14:54:57;5.50;;;2.65;;